Time;durP1;ratioP1;P1;durP2;ratioP2;P2;SDS_P1;SDS_P2;PMS_P1;PMS_P2;Temp;Humidity;BMP_temperature;BMP_pressure;BME280_temperature;BME280_humidity;BME280_pressure;Samples;Min_cycle;Max_cycle;Signal;HPM_P1;HPM_P2
2023/05/23 00:01:06;;;;;;;18.45;16.95;;;21.10;83.20;;;;;;5022848;28;20177;-89
2023/05/23 00:03:32;;;;;;;18.45;16.75;;;21.10;83.20;;;;;;5030700;28;20170;-88
2023/05/23 00:05:58;;;;;;;19.38;17.85;;;21.10;83.40;;;;;;5029824;28;20193;-89
2023/05/23 00:08:24;;;;;;;19.13;17.45;;;21.10;83.80;;;;;;5021858;28;20194;-88
2023/05/23 00:10:50;;;;;;;16.63;15.32;;;21.20;83.20;;;;;;5002457;28;20184;-88
2023/05/23 00:13:16;;;;;;;16.40;15.13;;;21.10;83.00;;;;;;5029628;28;20260;-89
2023/05/23 00:15:42;;;;;;;16.65;15.35;;;21.00;83.50;;;;;;5039785;28;20220;-88
2023/05/23 00:18:09;;;;;;;14.65;13.52;;;21.10;83.30;;;;;;5040252;28;20223;-90
2023/05/23 00:20:41;;;;;;;15.85;14.57;;;21.00;83.60;;;;;;5040336;28;20199;-88
2023/05/23 00:23:08;;;;;;;16.88;15.27;;;21.00;84.10;;;;;;5040949;28;20169;-88
2023/05/23 00:25:35;;;;;;;16.83;15.52;;;20.90;84.60;;;;;;5026584;28;20209;-89
2023/05/23 00:28:01;;;;;;;16.90;15.48;;;20.90;85.10;;;;;;5000673;28;20232;-90
2023/05/23 00:30:29;;;;;;;17.40;16.00;;;20.80;84.90;;;;;;5002391;28;20537;-90
2023/05/23 00:32:55;;;;;;;18.45;16.85;;;20.90;84.30;;;;;;5001486;28;20179;-88
2023/05/23 00:35:22;;;;;;;17.77;16.45;;;21.00;84.70;;;;;;5003687;28;20237;-87
2023/05/23 00:37:50;;;;;;;17.70;16.30;;;20.90;84.90;;;;;;5020145;28;20287;-90
2023/05/23 00:40:20;;;;;;;18.98;17.02;;;21.00;84.30;;;;;;5019322;28;20600;-88
2023/05/23 00:42:46;;;;;;;16.45;15.10;;;20.80;85.30;;;;;;5019230;28;20267;-89
2023/05/23 00:45:12;;;;;;;17.20;15.63;;;20.60;85.80;;;;;;5018732;28;20205;-88
2023/05/23 00:47:41;;;;;;;17.55;16.25;;;20.60;87.00;;;;;;5018752;28;20173;-89
2023/05/23 00:50:10;;;;;;;17.40;15.95;;;20.60;86.30;;;;;;5019597;28;20178;-88
2023/05/23 00:52:37;;;;;;;17.02;15.70;;;20.60;86.50;;;;;;5017420;28;20185;-88
2023/05/23 00:55:04;;;;;;;19.25;17.67;;;20.50;87.40;;;;;;5018936;28;20201;-88
2023/05/23 00:57:29;;;;;;;16.95;15.55;;;20.50;87.60;;;;;;5019274;28;20201;-88
2023/05/23 00:59:55;;;;;;;18.23;16.65;;;20.50;87.70;;;;;;5020453;28;20671;-89
2023/05/23 01:02:21;;;;;;;17.98;16.45;;;20.50;87.80;;;;;;5020144;28;20790;-89
2023/05/23 01:04:53;;;;;;;19.08;17.48;;;20.50;88.10;;;;;;5020667;28;20750;-88
2023/05/23 01:07:22;;;;;;;19.02;17.42;;;20.50;87.80;;;;;;5018491;28;20509;-88
2023/05/23 01:09:48;;;;;;;18.48;17.05;;;20.50;87.30;;;;;;5019380;28;20174;-88
2023/05/23 01:12:23;;;;;;;19.08;17.50;;;20.50;87.30;;;;;;5022245;28;20281;-88
2023/05/23 01:14:55;;;;;;;17.10;15.82;;;20.40;87.20;;;;;;5037815;28;20196;-88
2023/05/23 01:17:35;;;;;;;18.88;17.48;;;20.50;87.30;;;;;;5037680;28;20207;-90
2023/05/23 01:20:11;;;;;;;18.83;17.33;;;20.50;86.50;;;;;;5038765;28;20240;-89
2023/05/23 01:23:01;;;;;;;19.40;17.95;;;20.50;86.90;;;;;;5033004;28;20543;-88
2023/05/23 01:25:58;;;;;;;19.15;17.55;;;20.40;86.80;;;;;;4999092;28;20202;-90
2023/05/23 01:28:30;;;;;;;18.50;16.95;;;20.40;87.40;;;;;;5000523;28;20159;-88
2023/05/23 01:30:57;;;;;;;18.50;17.05;;;20.30;87.70;;;;;;5000140;28;20182;-88
2023/05/23 01:33:24;;;;;;;19.42;17.75;;;20.20;87.40;;;;;;5000829;28;20190;-90
2023/05/23 01:35:51;;;;;;;20.08;18.48;;;20.10;88.00;;;;;;5011087;28;20266;-89
2023/05/23 01:38:16;;;;;;;20.67;19.02;;;20.10;88.80;;;;;;5011539;28;20277;-90
2023/05/23 01:40:42;;;;;;;21.05;19.33;;;20.00;88.90;;;;;;5018949;28;20261;-91
2023/05/23 01:43:08;;;;;;;19.73;18.23;;;19.90;89.60;;;;;;5018039;28;20597;-88
2023/05/23 01:45:33;;;;;;;22.40;20.52;;;19.90;89.40;;;;;;5017906;28;20220;-88
2023/05/23 01:48:01;;;;;;;21.13;19.50;;;19.90;89.60;;;;;;5018288;28;20185;-89
2023/05/23 01:50:27;;;;;;;21.73;19.90;;;20.00;89.30;;;;;;5023663;28;20196;-89
2023/05/23 01:52:54;;;;;;;20.52;18.92;;;20.00;88.70;;;;;;5027049;28;20182;-88
2023/05/23 01:55:23;;;;;;;20.48;18.73;;;20.00;88.60;;;;;;5029415;28;20200;-88
2023/05/23 01:57:54;;;;;;;19.10;17.50;;;20.00;88.50;;;;;;5026341;28;20245;-88
2023/05/23 02:00:21;;;;;;;20.50;18.70;;;20.00;87.70;;;;;;5019153;28;20648;-88
2023/05/23 02:02:47;;;;;;;19.90;18.40;;;20.00;87.70;;;;;;5018043;28;20189;-89
2023/05/23 02:05:12;;;;;;;21.70;19.63;;;20.00;87.80;;;;;;5018426;28;20197;-89
2023/05/23 02:07:38;;;;;;;21.48;19.80;;;19.90;88.40;;;;;;5004235;28;20186;-89
2023/05/23 02:10:07;;;;;;;21.45;19.65;;;20.00;88.80;;;;;;4997189;28;20266;-89
2023/05/23 02:12:33;;;;;;;20.08;18.38;;;20.00;88.40;;;;;;5011889;28;20268;-89
2023/05/23 02:14:58;;;;;;;22.17;20.13;;;20.00;88.00;;;;;;5036822;28;20232;-89
2023/05/23 02:17:24;;;;;;;20.90;19.25;;;20.00;88.10;;;;;;5037028;28;20260;-88
2023/05/23 02:19:50;;;;;;;21.58;19.98;;;20.10;87.50;;;;;;5037387;28;20180;-89
2023/05/23 02:22:16;;;;;;;21.00;19.02;;;20.20;87.10;;;;;;5035000;28;20189;-88
2023/05/23 02:24:41;;;;;;;20.52;18.75;;;20.10;87.40;;;;;;4999394;28;20204;-89
2023/05/23 02:27:07;;;;;;;23.10;21.30;;;20.10;87.80;;;;;;4998229;28;20182;-88
2023/05/23 02:29:33;;;;;;;19.90;18.40;;;20.10;87.60;;;;;;4996881;28;20711;-88
2023/05/23 02:31:58;;;;;;;21.85;20.15;;;20.10;87.60;;;;;;4998169;28;20274;-88
2023/05/23 02:34:24;;;;;;;20.10;18.40;;;20.00;87.60;;;;;;5009611;28;20285;-88
2023/05/23 02:36:50;;;;;;;21.35;19.55;;;20.10;87.80;;;;;;5017607;28;20284;-88
2023/05/23 02:39:16;;;;;;;21.73;19.88;;;20.00;88.30;;;;;;5015483;28;20185;-88
2023/05/23 02:41:42;;;;;;;20.00;18.48;;;19.90;88.40;;;;;;4997683;28;20666;-88
2023/05/23 02:44:07;;;;;;;19.80;18.20;;;19.90;88.20;;;;;;5001001;28;20201;-88
2023/05/23 02:46:33;;;;;;;19.80;18.17;;;20.00;87.60;;;;;;5015992;28;20185;-89
2023/05/23 02:48:59;;;;;;;19.83;18.33;;;20.00;87.50;;;;;;5016374;28;20249;-89
2023/05/23 02:51:25;;;;;;;20.30;18.80;;;19.90;87.80;;;;;;5017343;28;20264;-88
2023/05/23 02:53:50;;;;;;;21.13;19.38;;;19.80;88.90;;;;;;5017218;28;20244;-87
2023/05/23 02:56:16;;;;;;;22.58;20.90;;;19.70;89.70;;;;;;5012287;28;20201;-89
2023/05/23 02:58:42;;;;;;;22.98;20.92;;;19.60;90.30;;;;;;4998689;28;20174;-87
2023/05/23 03:01:07;;;;;;;22.58;20.77;;;19.60;91.00;;;;;;4998099;28;20659;-89
2023/05/23 03:03:33;;;;;;;23.23;21.17;;;19.60;90.30;;;;;;4998809;28;20216;-88
2023/05/23 03:06:00;;;;;;;22.13;20.27;;;19.70;90.40;;;;;;4999072;28;20198;-88
2023/05/23 03:08:26;;;;;;;21.27;19.60;;;19.60;90.20;;;;;;4999704;28;20181;-87
2023/05/23 03:10:52;;;;;;;22.83;20.92;;;19.60;90.80;;;;;;4997342;28;20190;-89
2023/05/23 03:13:17;;;;;;;23.23;21.42;;;19.60;90.50;;;;;;5005016;28;20205;-88
2023/05/23 03:15:43;;;;;;;24.25;22.35;;;19.70;90.60;;;;;;4997943;28;20259;-90
2023/05/23 03:18:10;;;;;;;24.73;22.75;;;19.70;90.40;;;;;;4997872;28;20548;-88
2023/05/23 03:20:35;;;;;;;24.45;22.45;;;19.80;89.80;;;;;;5010505;28;20185;-89
2023/05/23 03:23:01;;;;;;;22.77;20.75;;;19.80;90.10;;;;;;5019070;28;20211;-89
2023/05/23 03:25:26;;;;;;;22.23;20.45;;;19.70;89.80;;;;;;5018873;28;20216;-88
2023/05/23 03:27:52;;;;;;;22.40;20.60;;;19.70;90.30;;;;;;5019018;28;20204;-88
2023/05/23 03:30:19;;;;;;;24.23;22.33;;;19.70;90.50;;;;;;5019095;28;20188;-89
2023/05/23 03:32:46;;;;;;;26.08;23.88;;;19.70;90.40;;;;;;5018883;28;20662;-88
2023/05/23 03:35:12;;;;;;;24.77;22.77;;;19.70;90.80;;;;;;5016858;28;20699;-88
2023/05/23 03:37:38;;;;;;;24.92;22.92;;;19.70;90.50;;;;;;5017934;28;20215;-87
2023/05/23 03:40:06;;;;;;;23.42;21.58;;;19.70;90.40;;;;;;5020878;28;20198;-88
2023/05/23 03:42:32;;;;;;;37.75;22.05;;;19.80;90.40;;;;;;5022222;28;20323;-87
2023/05/23 03:44:57;;;;;;;22.55;20.77;;;19.70;90.80;;;;;;5021907;28;20255;-89
2023/05/23 03:47:23;;;;;;;23.90;21.90;;;19.60;91.30;;;;;;5022497;28;20192;-86
2023/05/23 03:49:49;;;;;;;24.27;22.23;;;19.60;91.60;;;;;;5021846;28;20177;-87
2023/05/23 03:52:14;;;;;;;22.85;20.85;;;19.60;92.00;;;;;;5021574;28;20203;-88
2023/05/23 03:54:40;;;;;;;23.90;21.90;;;19.60;91.90;;;;;;5021894;28;20703;-90
2023/05/23 03:57:09;;;;;;;22.08;20.35;;;19.60;92.30;;;;;;5004218;28;20224;-89
2023/05/23 03:59:34;;;;;;;25.15;23.13;;;19.60;92.20;;;;;;5002325;28;20181;-90
2023/05/23 04:02:00;;;;;;;25.15;23.13;;;19.50;92.90;;;;;;5003140;28;20820;-88
2023/05/23 04:04:30;;;;;;;24.88;22.77;;;19.50;93.40;;;;;;5009889;28;20791;-88
2023/05/23 04:06:57;;;;;;;24.15;22.15;;;19.30;94.30;;;;;;5020043;28;20544;-88
2023/05/23 04:09:23;;;;;;;26.50;24.13;;;19.40;94.00;;;;;;5019637;28;20214;-90
2023/05/23 04:11:48;;;;;;;27.85;25.45;;;19.50;93.70;;;;;;5020981;28;20216;-87
2023/05/23 04:14:14;;;;;;;31.40;28.48;;;19.70;92.90;;;;;;5039436;28;20254;-87
2023/05/23 04:16:43;;;;;;;30.92;28.23;;;19.70;91.40;;;;;;5039736;28;20689;-88
2023/05/23 04:19:09;;;;;;;24.80;22.70;;;19.80;90.80;;;;;;5029040;28;20192;-88
2023/05/23 04:21:36;;;;;;;25.23;23.13;;;19.80;91.50;;;;;;5020977;28;20184;-89
2023/05/23 04:24:02;;;;;;;28.55;25.65;;;19.70;92.50;;;;;;5010074;28;20288;-89
2023/05/23 04:26:27;;;;;;;28.38;25.98;;;19.60;92.60;;;;;;5009717;28;20196;-89
2023/05/23 04:28:53;;;;;;;29.48;26.75;;;19.70;92.10;;;;;;5022075;28;20216;-88
2023/05/23 04:31:21;;;;;;;31.02;26.98;;;19.70;92.30;;;;;;5026614;28;20188;-88
2023/05/23 04:33:47;;;;;;;29.02;26.45;;;19.60;92.20;;;;;;5028247;28;20202;-84
2023/05/23 04:36:12;;;;;;;27.40;25.00;;;19.50;93.40;;;;;;5027926;28;20200;-87
2023/05/23 04:38:39;;;;;;;28.85;26.40;;;19.60;93.50;;;;;;5027141;28;20187;-87
2023/05/23 04:41:08;;;;;;;29.80;27.40;;;19.60;94.00;;;;;;5025895;28;20597;-87
2023/05/23 04:43:36;;;;;;;29.20;26.27;;;19.60;93.20;;;;;;5020973;28;20230;-86
2023/05/23 04:46:03;;;;;;;28.90;26.50;;;19.70;92.50;;;;;;5000507;28;20256;-88
2023/05/23 04:48:30;;;;;;;29.95;27.15;;;19.70;92.10;;;;;;5000885;28;20358;-89
2023/05/23 04:50:56;;;;;;;30.67;28.02;;;19.60;92.40;;;;;;5010160;28;20588;-87
2023/05/23 04:53:22;;;;;;;28.55;26.23;;;19.50;92.20;;;;;;5020032;28;20188;-86
2023/05/23 04:55:47;;;;;;;32.83;30.08;;;19.60;92.60;;;;;;5020256;28;20239;-86
2023/05/23 04:58:13;;;;;;;32.20;29.50;;;19.60;91.30;;;;;;5021339;28;20186;-87
2023/05/23 05:00:39;;;;;;;33.85;30.88;;;19.70;90.90;;;;;;5019696;28;20264;-87
2023/05/23 05:03:05;;;;;;;34.45;31.40;;;19.70;91.40;;;;;;5014953;28;20181;-87
2023/05/23 05:05:32;;;;;;;34.72;31.17;;;19.60;89.80;;;;;;5000109;28;20730;-87
2023/05/23 05:07:57;;;;;;;32.22;29.42;;;19.70;89.70;;;;;;5000789;28;20321;-87
2023/05/23 05:10:23;;;;;;;33.63;30.73;;;19.70;89.30;;;;;;4999468;28;20657;-87
2023/05/23 05:12:48;;;;;;;32.22;29.42;;;19.90;88.40;;;;;;5019751;28;20496;-86
2023/05/23 05:15:16;;;;;;;34.00;31.08;;;20.00;86.10;;;;;;5030278;28;20225;-89
2023/05/23 05:17:42;;;;;;;34.53;31.48;;;20.10;84.40;;;;;;5020980;28;20213;-88
2023/05/23 05:20:09;;;;;;;36.10;32.47;;;20.00;83.70;;;;;;5011465;28;20577;-86
2023/05/23 05:22:39;;;;;;;32.75;30.02;;;20.20;84.60;;;;;;5003019;28;20198;-88
2023/05/23 05:25:08;;;;;;;37.30;29.83;;;20.20;84.00;;;;;;5018634;28;20206;-87
2023/05/23 05:27:34;;;;;;;32.55;29.52;;;20.20;86.30;;;;;;5019582;28;20185;-87
2023/05/23 05:30:03;;;;;;;33.20;30.27;;;20.20;84.10;;;;;;5019841;28;20243;-89
2023/05/23 05:32:32;;;;;;;33.08;30.27;;;20.30;83.90;;;;;;5018806;28;20169;-87
2023/05/23 05:35:02;;;;;;;30.83;28.13;;;20.30;82.00;;;;;;5019746;28;20209;-87
2023/05/23 05:37:28;;;;;;;30.88;28.48;;;20.30;81.70;;;;;;5017966;28;20210;-85
2023/05/23 05:39:54;;;;;;;32.67;29.98;;;20.30;83.70;;;;;;5018085;28;20655;-87
2023/05/23 05:42:20;;;;;;;29.08;26.55;;;20.20;83.80;;;;;;5018842;28;20180;-87
2023/05/23 05:44:46;;;;;;;30.38;27.70;;;20.00;82.20;;;;;;5009299;28;20189;-86
2023/05/23 05:47:12;;;;;;;29.20;25.95;;;20.10;82.60;;;;;;5003479;28;20248;-88
2023/05/23 05:49:38;;;;;;;26.13;23.80;;;20.10;81.30;;;;;;5011028;28;20216;-86
2023/05/23 05:52:06;;;;;;;25.45;23.25;;;20.20;80.30;;;;;;5007422;28;20216;-86
2023/05/23 05:54:31;;;;;;;25.55;23.23;;;20.30;78.20;;;;;;5012238;28;20251;-87
2023/05/23 05:56:57;;;;;;;24.92;22.67;;;20.30;78.60;;;;;;5011379;28;20202;-86
2023/05/23 05:59:23;;;;;;;24.25;22.17;;;20.30;78.30;;;;;;5009540;28;20571;-88
2023/05/23 06:01:50;;;;;;;23.70;21.63;;;20.30;78.40;;;;;;5008087;28;20277;-87
2023/05/23 06:04:16;;;;;;;22.20;20.40;;;20.40;78.20;;;;;;5010497;28;20204;-87
2023/05/23 06:06:42;;;;;;;23.20;20.58;;;20.30;76.50;;;;;;5010407;28;20225;-87
2023/05/23 06:09:08;;;;;;;20.67;19.05;;;20.30;75.70;;;;;;5012120;28;20557;-88
2023/05/23 06:11:33;;;;;;;21.33;19.45;;;20.20;75.00;;;;;;5009585;28;20203;-87
2023/05/23 06:13:59;;;;;;;21.92;20.02;;;20.00;74.70;;;;;;5009220;28;20199;-86
2023/05/23 06:16:25;;;;;;;22.55;20.70;;;19.80;75.60;;;;;;5009059;28;20232;-87
2023/05/23 06:18:50;;;;;;;22.08;20.27;;;19.80;76.10;;;;;;5009310;28;20220;-87
2023/05/23 06:21:16;;;;;;;22.88;20.90;;;19.70;76.20;;;;;;5007655;28;20181;-87
2023/05/23 06:23:41;;;;;;;22.52;20.75;;;19.70;76.40;;;;;;5008092;28;21557;-87
2023/05/23 06:26:09;;;;;;;22.13;20.42;;;19.50;77.50;;;;;;5009738;28;20216;-86
2023/05/23 06:28:38;;;;;;;22.10;20.30;;;19.50;76.90;;;;;;5009267;28;20243;-86
2023/05/23 06:31:04;;;;;;;22.40;20.20;;;19.30;78.40;;;;;;5004055;28;20280;-87
2023/05/23 06:33:30;;;;;;;22.23;20.30;;;19.40;77.00;;;;;;5008138;28;20221;-88
2023/05/23 06:35:56;;;;;;;22.00;19.90;;;19.40;77.20;;;;;;5009476;28;20245;-88
2023/05/23 06:38:22;;;;;;;22.02;20.20;;;19.50;77.40;;;;;;5004048;28;20740;-88
2023/05/23 06:40:47;;;;;;;21.52;19.88;;;19.30;78.00;;;;;;5007275;28;20201;-86
2023/05/23 06:43:13;;;;;;;22.42;20.50;;;19.30;78.50;;;;;;5010085;28;20273;-87
2023/05/23 06:45:39;;;;;;;22.25;20.33;;;19.40;78.40;;;;;;5009037;28;20221;-87
2023/05/23 06:48:05;;;;;;;21.45;19.85;;;19.50;77.70;;;;;;5009256;28;20208;-86
2023/05/23 06:50:31;;;;;;;19.60;17.95;;;19.40;77.40;;;;;;5011413;28;20679;-88
2023/05/23 06:52:56;;;;;;;20.42;18.70;;;19.40;77.70;;;;;;5009263;28;20177;-89
2023/05/23 06:55:22;;;;;;;19.10;17.45;;;19.30;76.70;;;;;;5007552;28;20222;-87
2023/05/23 06:57:51;;;;;;;18.00;16.30;;;19.30;77.10;;;;;;5009632;28;20213;-84
2023/05/23 07:00:17;;;;;;;17.40;15.68;;;19.40;75.40;;;;;;5007487;28;20254;-86
2023/05/23 07:02:47;;;;;;;16.13;14.82;;;19.60;74.20;;;;;;5008593;28;20200;-86
2023/05/23 07:05:13;;;;;;;16.55;15.18;;;19.30;73.70;;;;;;5009968;28;20205;-89
2023/05/23 07:07:39;;;;;;;16.13;14.82;;;19.40;73.60;;;;;;5010208;28;20190;-85
2023/05/23 07:10:05;;;;;;;15.65;14.38;;;19.40;72.50;;;;;;5006135;28;20200;-86
2023/05/23 07:12:31;;;;;;;15.88;14.60;;;19.20;72.90;;;;;;5010233;28;20189;-88
2023/05/23 07:14:57;;;;;;;15.38;14.15;;;19.30;73.20;;;;;;5011908;28;20215;-88
2023/05/23 07:17:23;;;;;;;15.70;14.10;;;19.20;73.20;;;;;;5019180;28;20304;-87
2023/05/23 07:19:48;;;;;;;15.07;13.85;;;19.20;73.50;;;;;;5012545;28;20268;-87
2023/05/23 07:22:14;;;;;;;15.02;13.82;;;19.20;74.00;;;;;;5000723;28;20200;-88
2023/05/23 07:24:40;;;;;;;14.55;13.10;;;19.30;73.80;;;;;;5019441;28;20599;-88
2023/05/23 07:27:06;;;;;;;14.77;13.38;;;19.20;71.50;;;;;;5021386;28;20197;-88
2023/05/23 07:29:31;;;;;;;13.85;12.75;;;19.30;72.10;;;;;;5022175;28;20189;-87
2023/05/23 07:31:59;;;;;;;12.98;11.68;;;19.40;71.90;;;;;;5022020;28;20193;-87
2023/05/23 07:34:25;;;;;;;13.27;12.15;;;19.40;70.20;;;;;;5022700;28;20671;-87
2023/05/23 07:36:54;;;;;;;13.50;12.40;;;19.20;70.00;;;;;;5006118;28;20711;-88
2023/05/23 07:39:21;;;;;;;14.23;12.93;;;19.20;70.00;;;;;;5003073;28;20281;-88
2023/05/23 07:41:48;;;;;;;14.02;12.80;;;19.10;70.60;;;;;;5002939;28;20154;-87
2023/05/23 07:44:13;;;;;;;13.20;12.20;;;19.20;70.50;;;;;;5009491;28;20197;-87
2023/05/23 07:46:39;;;;;;;13.90;12.55;;;19.20;70.50;;;;;;5014558;28;20313;-86
2023/05/23 07:49:05;;;;;;;13.38;12.13;;;19.30;70.10;;;;;;5004321;28;20178;-84
2023/05/23 07:51:31;;;;;;;15.60;14.20;;;19.70;70.00;;;;;;5001793;28;20197;-86
2023/05/23 07:53:57;;;;;;;16.38;14.73;;;19.70;68.60;;;;;;5003873;28;20174;-85
2023/05/23 07:56:22;;;;;;;17.35;15.70;;;19.70;68.40;;;;;;5005059;28;20210;-84
2023/05/23 07:58:48;;;;;;;16.17;14.85;;;19.60;68.70;;;;;;5004936;28;20197;-88
2023/05/23 08:01:14;;;;;;;15.18;13.95;;;19.70;68.30;;;;;;5007328;28;20190;-85
2023/05/23 08:03:39;;;;;;;16.75;15.15;;;19.80;67.40;;;;;;5010237;28;20175;-86
2023/05/23 08:06:06;;;;;;;16.58;15.18;;;19.60;67.60;;;;;;5010176;28;20620;-87
2023/05/23 08:08:32;;;;;;;17.25;15.65;;;19.50;68.40;;;;;;5002782;28;20174;-87
2023/05/23 08:10:57;;;;;;;15.65;14.27;;;19.60;68.80;;;;;;5001666;28;20189;-85
2023/05/23 08:13:23;;;;;;;17.15;15.68;;;19.60;68.40;;;;;;5013841;28;20194;-88
2023/05/23 08:15:49;;;;;;;17.33;15.73;;;19.70;67.50;;;;;;5001495;28;20194;-89
2023/05/23 08:18:15;;;;;;;17.02;15.43;;;19.70;67.30;;;;;;5000385;28;20186;-87
2023/05/23 08:20:41;;;;;;;17.23;15.73;;;19.90;67.00;;;;;;5002287;28;20178;-87
2023/05/23 08:23:06;;;;;;;17.42;15.93;;;19.80;67.10;;;;;;5002551;28;20178;-87
2023/05/23 08:25:32;;;;;;;17.67;16.15;;;19.80;67.30;;;;;;5002188;28;20696;-86
2023/05/23 08:27:59;;;;;;;16.77;15.38;;;20.00;67.10;;;;;;5002475;28;20190;-87
2023/05/23 08:30:26;;;;;;;16.85;15.35;;;20.00;66.20;;;;;;5005353;28;20198;-86
2023/05/23 08:32:52;;;;;;;17.23;15.73;;;19.90;66.00;;;;;;5014670;28;20202;-87
2023/05/23 08:35:18;;;;;;;17.15;15.75;;;19.80;67.00;;;;;;5005389;28;20206;-86
2023/05/23 08:37:45;;;;;;;16.98;15.48;;;19.80;67.10;;;;;;5006014;28;20747;-85
2023/05/23 08:40:17;;;;;;;16.30;14.90;;;20.00;67.70;;;;;;5002741;28;20190;-88
2023/05/23 08:42:43;;;;;;;16.63;15.13;;;20.00;67.10;;;;;;5001839;28;20676;-87
2023/05/23 08:45:09;;;;;;;16.48;14.98;;;19.80;67.50;;;;;;5014453;28;20202;-86
2023/05/23 08:47:39;;;;;;;14.50;13.20;;;20.00;68.10;;;;;;5019922;28;20614;-87
2023/05/23 08:50:10;;;;;;;14.38;13.13;;;19.70;66.30;;;;;;5019168;28;20201;-87
2023/05/23 08:52:55;;;;;;;14.15;12.80;;;19.60;66.90;;;;;;5013023;28;20187;-89
2023/05/23 08:55:25;;;;;;;16.70;11.90;;;19.70;67.00;;;;;;5013746;28;20673;-87
2023/05/23 08:57:52;;;;;;;12.32;11.32;;;20.00;65.60;;;;;;5020226;28;20202;-86
2023/05/23 09:00:19;;;;;;;12.38;11.23;;;20.10;66.30;;;;;;5019658;28;20186;-85
2023/05/23 09:02:46;;;;;;;11.93;10.93;;;20.20;63.90;;;;;;5021016;28;20173;-88
2023/05/23 09:05:12;;;;;;;11.10;10.13;;;20.30;64.00;;;;;;5020864;28;20202;-87
2023/05/23 09:07:38;;;;;;;11.35;10.35;;;20.30;64.30;;;;;;5016285;28;20194;-88
2023/05/23 09:10:06;;;;;;;11.38;10.43;;;20.70;62.70;;;;;;5019508;28;20206;-87
2023/05/23 09:12:35;;;;;;;10.95;9.95;;;20.80;61.10;;;;;;5017828;28;20174;-87
2023/05/23 09:15:00;;;;;;;10.90;10.07;;;20.80;61.80;;;;;;5018711;28;20196;-88
2023/05/23 09:17:26;;;;;;;9.02;8.43;;;20.90;62.00;;;;;;5018571;28;20211;-87
2023/05/23 09:19:52;;;;;;;9.23;8.50;;;20.90;60.00;;;;;;5018495;28;20181;-86
2023/05/23 09:22:25;;;;;;;8.60;7.85;;;20.60;60.00;;;;;;5018958;28;20254;-86
2023/05/23 09:24:52;;;;;;;8.52;7.93;;;20.60;60.70;;;;;;5019434;28;20572;-87
2023/05/23 09:27:17;;;;;;;8.07;7.35;;;20.50;60.20;;;;;;5018664;28;20198;-86
2023/05/23 09:29:43;;;;;;;8.90;7.60;;;20.50;60.00;;;;;;5010425;28;20188;-88
2023/05/23 09:32:19;;;;;;;7.28;6.78;;;20.70;60.20;;;;;;4999997;28;20190;-87
2023/05/23 09:34:58;;;;;;;7.03;6.53;;;20.60;60.20;;;;;;4999068;28;20777;-87
2023/05/23 09:37:35;;;;;;;8.38;6.70;;;20.60;60.20;;;;;;4999271;28;20462;-88
2023/05/23 09:40:05;;;;;;;7.20;6.70;;;20.70;58.30;;;;;;4999569;28;20199;-87
2023/05/23 09:42:32;;;;;;;6.65;6.22;;;20.70;58.30;;;;;;4998577;28;20250;-87
2023/05/23 09:44:58;;;;;;;6.75;6.25;;;20.80;58.40;;;;;;5015890;28;20247;-89
2023/05/23 09:47:25;;;;;;;6.15;5.75;;;20.70;58.50;;;;;;5016816;28;20196;-87
2023/05/23 09:49:50;;;;;;;6.22;5.72;;;20.70;58.90;;;;;;5017115;28;20652;-87
2023/05/23 09:52:18;;;;;;;11.27;6.43;;;20.50;58.40;;;;;;5018843;28;20181;-87
2023/05/23 09:54:45;;;;;;;7.75;6.38;;;20.70;58.90;;;;;;5017744;28;20207;-87
2023/05/23 09:57:12;;;;;;;6.07;5.50;;;21.00;58.20;;;;;;5017596;28;20724;-86
2023/05/23 09:59:40;;;;;;;6.03;5.63;;;21.00;57.00;;;;;;5018530;28;20199;-87
2023/05/23 10:02:09;;;;;;;6.28;5.88;;;21.00;57.90;;;;;;5019658;28;20174;-87
2023/05/23 10:04:37;;;;;;;5.75;5.35;;;21.00;57.50;;;;;;5020966;28;20239;-87
2023/05/23 10:07:24;;;;;;;6.38;5.88;;;21.20;57.50;;;;;;5019099;28;20487;-87
2023/05/23 10:09:55;;;;;;;6.50;6.00;;;21.50;57.70;;;;;;5017353;28;20185;-87
2023/05/23 10:12:54;;;;;;;5.78;5.38;;;21.70;56.10;;;;;;5018148;28;20228;-86
2023/05/23 10:15:22;;;;;;;5.93;5.45;;;21.90;55.90;;;;;;5017728;28;20255;-86
2023/05/23 10:18:09;;;;;;;6.45;5.93;;;21.90;55.50;;;;;;5001225;28;20257;-87
2023/05/23 10:20:38;;;;;;;6.47;5.97;;;22.00;53.90;;;;;;5000777;28;20198;-86
2023/05/23 10:23:04;;;;;;;7.38;6.78;;;22.30;52.60;;;;;;5013914;28;20174;-87
2023/05/23 10:25:30;;;;;;;6.82;6.43;;;22.70;50.60;;;;;;4998160;28;20198;-86
2023/05/23 10:27:58;;;;;;;6.90;6.50;;;23.00;50.60;;;;;;4999208;28;20232;-87
2023/05/23 10:30:27;;;;;;;7.10;6.40;;;23.30;48.60;;;;;;4999235;28;20189;-88
2023/05/23 10:32:55;;;;;;;6.78;5.78;;;23.40;48.60;;;;;;5005297;28;20177;-86
2023/05/23 10:35:32;;;;;;;6.82;6.32;;;23.10;49.00;;;;;;5017888;28;20198;-86
2023/05/23 10:38:12;;;;;;;6.90;6.32;;;23.40;48.60;;;;;;5018379;28;20212;-88
2023/05/23 10:40:47;;;;;;;6.20;5.63;;;23.20;49.40;;;;;;5017639;28;20187;-87
2023/05/23 10:43:18;;;;;;;6.53;6.00;;;23.40;49.50;;;;;;5018215;28;20157;-87
2023/05/23 10:45:45;;;;;;;6.03;5.57;;;23.40;48.90;;;;;;5018145;28;20550;-87
2023/05/23 10:48:40;;;;;;;6.18;5.68;;;23.20;49.10;;;;;;5002265;28;20254;-87
2023/05/23 10:51:10;;;;;;;6.13;5.60;;;22.90;50.10;;;;;;5002043;28;20248;-87
2023/05/23 10:53:37;;;;;;;6.10;5.70;;;22.60;49.80;;;;;;5003836;28;20182;-86
2023/05/23 10:56:08;;;;;;;5.82;5.53;;;22.90;50.50;;;;;;5002377;28;20240;-87
2023/05/23 10:58:35;;;;;;;5.93;5.50;;;23.30;49.00;;;;;;5004603;28;20672;-87
2023/05/23 11:01:06;;;;;;;6.43;5.93;;;23.30;48.20;;;;;;5017086;28;20198;-87
2023/05/23 11:03:56;;;;;;;5.63;5.15;;;23.20;48.20;;;;;;5016958;28;20261;-87
2023/05/23 11:06:28;;;;;;;5.72;5.40;;;23.10;48.50;;;;;;5015428;28;20200;-87
2023/05/23 11:09:04;;;;;;;6.40;5.90;;;23.00;49.60;;;;;;5002576;28;20233;-88
2023/05/23 11:11:49;;;;;;;5.80;5.40;;;23.10;50.40;;;;;;5002156;28;20162;-89
2023/05/23 11:14:15;;;;;;;6.78;5.43;;;22.90;50.20;;;;;;5002490;28;20230;-88
2023/05/23 11:16:42;;;;;;;5.75;5.35;;;22.90;50.70;;;;;;5002965;28;20384;-87
2023/05/23 11:19:20;;;;;;;5.60;5.30;;;23.00;50.40;;;;;;5002569;28;20178;-87
2023/05/23 11:21:52;;;;;;;5.97;5.60;;;23.00;51.10;;;;;;5019289;28;20186;-87
2023/05/23 11:24:18;;;;;;;6.13;5.72;;;23.00;51.10;;;;;;5022456;28;20193;-87
2023/05/23 11:26:59;;;;;;;6.15;5.75;;;23.00;50.30;;;;;;5022534;28;20224;-88
2023/05/23 11:29:27;;;;;;;6.20;5.80;;;23.30;49.70;;;;;;5022907;28;20572;-86
2023/05/23 11:31:54;;;;;;;6.40;5.88;;;23.30;50.60;;;;;;5022852;28;20269;-86
2023/05/23 11:34:21;;;;;;;6.20;5.80;;;23.20;49.90;;;;;;5021929;28;20251;-87
2023/05/23 11:36:51;;;;;;;6.63;6.13;;;23.30;49.80;;;;;;5015132;28;20711;-86
2023/05/23 11:39:18;;;;;;;6.30;5.90;;;23.90;48.70;;;;;;4998904;28;20201;-86
2023/05/23 11:41:45;;;;;;;6.60;6.10;;;24.00;49.00;;;;;;4999816;28;20197;-88
2023/05/23 11:44:12;;;;;;;6.50;6.05;;;23.60;48.80;;;;;;4999697;28;20170;-86
2023/05/23 11:46:39;;;;;;;7.22;6.72;;;24.00;48.30;;;;;;5000049;28;20174;-87
2023/05/23 11:49:10;;;;;;;6.57;6.18;;;24.10;47.60;;;;;;5000317;28;20183;-87
2023/05/23 11:51:36;;;;;;;6.60;6.10;;;23.80;48.90;;;;;;5001708;28;20198;-87
2023/05/23 11:54:02;;;;;;;5.72;5.43;;;23.60;50.00;;;;;;5001856;28;20190;-86
2023/05/23 11:56:27;;;;;;;5.90;5.43;;;23.40;48.70;;;;;;5009210;28;20220;-88
2023/05/23 11:58:56;;;;;;;5.78;5.40;;;23.20;50.70;;;;;;5020477;28;20572;-87
2023/05/23 12:01:30;;;;;;;6.40;5.90;;;23.00;51.80;;;;;;5019834;28;20184;-88
2023/05/23 12:03:56;;;;;;;6.68;6.25;;;23.00;52.50;;;;;;5020036;28;20635;-88
2023/05/23 12:06:23;;;;;;;5.75;5.43;;;23.00;52.50;;;;;;5007373;28;20210;-88
2023/05/23 12:08:51;;;;;;;5.60;5.10;;;22.70;52.60;;;;;;5000765;28;20210;-86
2023/05/23 12:11:16;;;;;;;5.70;5.20;;;22.60;52.60;;;;;;5000349;28;20232;-87
2023/05/23 12:13:43;;;;;;;5.15;4.82;;;22.50;53.30;;;;;;5032996;28;20649;-87
2023/05/23 12:16:11;;;;;;;5.10;4.80;;;22.30;53.40;;;;;;5040129;28;20278;-87
2023/05/23 12:18:37;;;;;;;5.22;4.88;;;22.30;54.20;;;;;;5040640;28;20181;-86
2023/05/23 12:21:06;;;;;;;4.43;4.13;;;22.10;54.20;;;;;;5003675;28;20185;-87
2023/05/23 12:23:32;;;;;;;4.70;4.40;;;22.10;53.50;;;;;;5000361;28;20225;-87
2023/05/23 12:25:58;;;;;;;4.80;4.50;;;22.10;52.60;;;;;;5000381;28;20206;-86
2023/05/23 12:28:38;;;;;;;5.05;4.75;;;22.20;53.50;;;;;;5001060;28;20213;-87
2023/05/23 12:31:17;;;;;;;5.03;4.65;;;22.40;53.60;;;;;;4999641;28;20261;-86
2023/05/23 12:33:44;;;;;;;4.93;4.63;;;22.40;53.00;;;;;;5000703;28;20182;-87
2023/05/23 12:36:11;;;;;;;5.18;4.88;;;22.50;52.30;;;;;;5001779;28;20205;-87